Time;durP1;ratioP1;P1;durP2;ratioP2;P2;SDS_P1;SDS_P2;PMS_P1;PMS_P2;Temp;Humidity;BMP_temperature;BMP_pressure;BME280_temperature;BME280_humidity;BME280_pressure;Samples;Min_cycle;Max_cycle;Signal;HPM_P1;HPM_P2
2020/12/10 00:00:33;;;;;;;12.07;5.87;;;;;;;4.94;49.88;152410.67;1715061;80;21380;-66
2020/12/10 00:03:06;;;;;;;16.67;6.33;;;;;;;5.09;49.91;152449.80;1774115;79;21736;-69
2020/12/10 00:05:39;;;;;;;21.10;7.00;;;;;;;5.09;49.65;152448.47;1785765;79;21283;-67
2020/12/10 00:08:12;;;;;;;17.48;7.22;;;;;;;4.97;49.89;152418.50;1719423;82;21213;-68
2020/12/10 00:10:45;;;;;;;18.50;5.45;;;;;;;4.90;49.90;152398.94;1728772;82;21165;-68
2020/12/10 00:13:17;;;;;;;22.85;8.80;;;;;;;4.86;49.98;152389.78;1774208;80;21213;-68
2020/12/10 00:15:50;;;;;;;17.25;6.00;;;;;;;4.86;50.03;152388.50;1776067;80;21688;-67
2020/12/10 00:18:22;;;;;;;14.55;6.00;;;;;;;4.84;50.03;152383.27;1767139;80;21267;-69
2020/12/10 00:20:54;;;;;;;13.88;5.75;;;;;;;4.85;50.02;152385.88;1764284;80;21412;-67
2020/12/10 00:23:27;;;;;;;14.70;6.40;;;;;;;4.78;50.08;152367.66;1715029;82;21290;-67
2020/12/10 00:25:59;;;;;;;19.52;7.60;;;;;;;4.81;50.12;152375.44;1720347;81;21449;-68
2020/12/10 00:28:32;;;;;;;16.85;5.92;;;;;;;4.80;50.12;152372.87;1699208;83;21399;-66
2020/12/10 00:31:05;;;;;;;13.88;7.03;;;;;;;4.78;50.14;152368.94;1772506;80;21193;-68
2020/12/10 00:33:37;;;;;;;13.78;5.78;;;;;;;4.74;50.20;152358.53;1758994;79;21376;-67
2020/12/10 00:36:09;;;;;;;12.43;5.45;;;;;;;4.77;50.20;152365.03;1784758;79;21339;-67
2020/12/10 00:38:42;;;;;;;12.23;5.65;;;;;;;4.79;50.23;152370.27;1760266;79;21335;-66
2020/12/10 00:41:15;;;;;;;13.30;5.83;;;;;;;4.82;50.23;152378.05;1765743;79;21384;-67
2020/12/10 00:43:48;;;;;;;14.35;6.53;;;;;;;4.85;50.15;152387.22;1760367;80;21399;-69
2020/12/10 00:46:20;;;;;;;16.37;5.35;;;;;;;4.88;50.09;152395.00;1758760;80;21347;-67
2020/12/10 00:48:53;;;;;;;13.65;5.58;;;;;;;4.84;50.09;152383.27;1772108;80;21849;-69
2020/12/10 00:51:25;;;;;;;12.90;5.40;;;;;;;4.84;50.09;152383.27;1765939;80;21360;-66
2020/12/10 00:53:57;;;;;;;11.55;6.03;;;;;;;4.84;50.08;152384.59;1731636;81;21348;-69
2020/12/10 00:56:35;;;;;;;14.03;6.37;;;;;;;4.84;50.13;152384.59;1760669;80;21257;-65
2020/12/10 00:59:08;;;;;;;11.93;5.28;;;;;;;4.85;50.07;152385.88;1766595;80;21352;-67
2020/12/10 01:01:42;;;;;;;13.30;6.28;;;;;;;4.85;50.07;152385.88;1756443;79;21344;-67
2020/12/10 01:04:15;;;;;;;15.83;6.85;;;;;;;4.85;50.09;152387.22;1775647;80;21254;-66
2020/12/10 01:06:47;;;;;;;13.55;5.92;;;;;;;4.87;49.99;152391.09;1763464;80;21701;-68
2020/12/10 01:09:19;;;;;;;10.20;5.33;;;;;;;4.88;50.02;152393.72;1751434;80;21824;-68
2020/12/10 01:11:51;;;;;;;15.25;5.97;;;;;;;4.84;50.02;152383.27;1778656;80;21375;-66
2020/12/10 01:14:24;;;;;;;14.60;6.37;;;;;;;4.81;50.02;152376.77;1771121;80;21253;-67
2020/12/10 01:16:56;;;;;;;14.63;6.35;;;;;;;4.76;50.03;152363.72;1772904;80;21342;-67
2020/12/10 01:19:29;;;;;;;16.05;5.30;;;;;;;4.79;50.09;152370.27;1774641;80;21395;-67
2020/12/10 01:22:02;;;;;;;14.98;6.47;;;;;;;4.76;50.09;152363.72;1774874;80;21320;-67
2020/12/10 01:24:35;;;;;;;13.70;5.75;;;;;;;4.75;50.16;152359.81;1725603;80;21249;-67
2020/12/10 01:27:08;;;;;;;14.07;5.95;;;;;;;4.75;50.16;152361.09;1748108;80;21701;-67
2020/12/10 01:29:40;;;;;;;13.35;5.58;;;;;;;4.76;50.12;152363.72;1761233;80;21348;-69
2020/12/10 01:32:13;;;;;;;13.13;5.65;;;;;;;4.79;50.11;152370.27;1774839;79;21261;-68
2020/12/10 01:34:45;;;;;;;12.90;6.00;;;;;;;4.78;50.05;152368.94;1764472;80;21234;-71
2020/12/10 01:37:20;;;;;;;16.57;5.85;;;;;;;4.76;50.16;152362.44;1751088;82;21358;-68
2020/12/10 01:39:52;;;;;;;15.55;5.45;;;;;;;4.76;50.12;152363.72;1737526;82;21403;-68
2020/12/10 01:42:24;;;;;;;21.00;6.75;;;;;;;4.76;50.09;152362.44;1763207;80;21360;-67
2020/12/10 01:44:57;;;;;;;15.08;6.53;;;;;;;4.96;49.75;152415.89;1747838;80;21359;-72
2020/12/10 01:47:29;;;;;;;15.00;5.28;;;;;;;4.76;49.88;152362.44;1774070;80;21832;-66
2020/12/10 01:50:03;;;;;;;12.78;6.85;;;;;;;4.70;49.97;152348.09;1738608;82;21391;-67
2020/12/10 01:52:35;;;;;;;11.78;5.70;;;;;;;4.57;50.01;152314.20;1771018;80;21391;-66
2020/12/10 01:55:08;;;;;;;16.23;5.53;;;;;;;4.59;50.08;152319.42;1775444;80;21229;-67
2020/12/10 01:57:40;;;;;;;14.83;5.78;;;;;;;4.52;50.17;152301.16;1777138;80;21866;-68
2020/12/10 02:00:12;;;;;;;13.95;5.37;;;;;;;4.53;50.10;152302.47;1778319;79;21326;-67
2020/12/10 02:02:45;;;;;;;13.05;5.30;;;;;;;4.46;50.22;152284.20;1730182;81;21507;-67
2020/12/10 02:05:17;;;;;;;11.35;5.87;;;;;;;4.44;50.21;152280.31;1762404;80;21271;-68
2020/12/10 02:07:50;;;;;;;12.47;5.22;;;;;;;4.42;50.28;152273.81;1773230;80;21186;-68
2020/12/10 02:10:22;;;;;;;12.47;5.90;;;;;;;4.40;50.24;152267.31;1778690;80;21717;-68
2020/12/10 02:12:56;;;;;;;15.23;6.05;;;;;;;4.40;50.20;152268.59;1764787;80;21352;-68
2020/12/10 02:15:28;;;;;;;16.02;6.80;;;;;;;4.39;50.29;152264.70;1748071;80;21244;-69
2020/12/10 02:18:05;;;;;;;16.25;5.92;;;;;;;4.40;50.32;152267.31;1772967;80;21253;-66
2020/12/10 02:20:37;;;;;;;15.55;5.97;;;;;;;4.41;50.23;152269.88;1717994;82;21344;-70
2020/12/10 02:23:10;;;;;;;16.02;6.17;;;;;;;4.40;50.26;152267.31;1759658;80;21205;-67
2020/12/10 02:25:43;;;;;;;14.33;6.17;;;;;;;4.36;50.24;152256.87;1765325;80;21246;-67
2020/12/10 02:28:17;;;;;;;13.78;5.67;;;;;;;4.31;50.18;152243.81;1749887;81;21334;-68
2020/12/10 02:30:49;;;;;;;15.03;5.45;;;;;;;4.40;50.10;152267.31;1743284;81;21351;-67
2020/12/10 02:33:22;;;;;;;12.05;6.28;;;;;;;4.35;50.22;152254.25;1763901;80;21203;-61
2020/12/10 02:35:55;;;;;;;16.40;6.40;;;;;;;4.59;49.86;152319.42;1779262;80;21341;-61
2020/12/10 02:38:28;;;;;;;14.07;6.53;;;;;;;4.63;49.82;152329.81;1769573;80;21364;-59
2020/12/10 02:41:00;;;;;;;16.57;5.75;;;;;;;4.67;49.66;152340.25;1772310;80;21181;-61
2020/12/10 02:43:32;;;;;;;16.00;6.72;;;;;;;4.60;49.69;152322.03;1771084;80;21668;-59
2020/12/10 02:46:05;;;;;;;15.68;5.85;;;;;;;4.55;49.80;152307.70;1766851;80;21205;-58
2020/12/10 02:48:39;;;;;;;14.58;5.87;;;;;;;4.73;49.49;152354.59;1770501;80;21229;-59
2020/12/10 02:51:11;;;;;;;13.58;6.20;;;;;;;4.68;49.65;152342.88;1770778;80;21398;-59
2020/12/10 02:53:44;;;;;;;15.30;5.50;;;;;;;4.37;49.77;152260.75;1764397;80;21335;-60
2020/12/10 02:56:16;;;;;;;13.18;5.72;;;;;;;4.17;50.26;152207.33;1744849;80;21790;-60
2020/12/10 02:58:49;;;;;;;11.65;5.17;;;;;;;4.24;50.28;152226.87;1766455;81;21343;-59
2020/12/10 03:01:21;;;;;;;13.13;5.20;;;;;;;4.28;50.20;152237.31;1769357;81;21359;-59
2020/12/10 03:03:54;;;;;;;11.20;5.25;;;;;;;4.30;50.13;152242.53;1757182;81;21415;-59
2020/12/10 03:06:26;;;;;;;12.68;5.83;;;;;;;4.31;50.13;152243.81;1766148;80;21356;-59
2020/12/10 03:08:58;;;;;;;11.20;5.00;;;;;;;4.22;50.20;152221.70;1779930;80;21233;-59
2020/12/10 03:11:32;;;;;;;11.55;5.47;;;;;;;4.23;50.19;152224.27;1755733;80;21413;-60
2020/12/10 03:14:05;;;;;;;19.92;6.47;;;;;;;4.28;50.17;152236.03;1777070;79;21337;-59
2020/12/10 03:16:37;;;;;;;15.03;6.25;;;;;;;4.22;50.22;152220.37;1776450;80;21864;-59
2020/12/10 03:19:09;;;;;;;17.67;7.28;;;;;;;4.22;50.18;152221.70;1775529;80;21329;-59
2020/12/10 03:21:42;;;;;;;18.90;5.70;;;;;;;4.25;50.21;152228.20;1771889;80;21269;-59
2020/12/10 03:24:14;;;;;;;14.33;5.10;;;;;;;4.23;50.20;152222.98;1769929;80;21274;-59
2020/12/10 03:26:46;;;;;;;14.05;4.92;;;;;;;4.22;50.18;152220.37;1771677;80;21186;-60
2020/12/10 03:29:18;;;;;;;11.95;5.20;;;;;;;4.17;50.22;152208.66;1773257;80;21218;-60
2020/12/10 03:31:51;;;;;;;9.45;5.15;;;;;;;4.16;50.28;152204.78;1774223;80;21339;-60
2020/12/10 03:34:24;;;;;;;12.60;5.30;;;;;;;4.15;50.20;152202.16;1775401;80;21391;-61
2020/12/10 03:36:58;;;;;;;12.50;4.85;;;;;;;3.85;50.51;152125.31;1773817;79;21363;-60
2020/12/10 03:39:30;;;;;;;13.40;5.05;;;;;;;3.84;50.96;152121.37;1755097;80;21325;-60
2020/12/10 03:42:03;;;;;;;10.15;6.03;;;;;;;4.04;50.63;152174.78;1769872;79;21332;-61
2020/12/10 03:44:35;;;;;;;11.90;4.70;;;;;;;4.14;50.52;152199.55;1757877;80;21427;-60
2020/12/10 03:47:08;;;;;;;11.90;5.53;;;;;;;4.27;50.54;152233.42;1756807;80;21259;-60
2020/12/10 03:49:40;;;;;;;14.13;5.05;;;;;;;4.35;50.41;152254.25;1767749;80;21340;-60
2020/12/10 03:52:12;;;;;;;13.88;5.60;;;;;;;4.76;50.03;152362.44;1779739;79;21315;-60
2020/12/10 03:54:45;;;;;;;10.10;6.17;;;;;;;5.01;49.68;152428.89;1778763;80;21207;-60
2020/12/10 03:57:17;;;;;;;14.47;5.28;;;;;;;5.19;49.43;152474.53;1773967;80;21344;-60
2020/12/10 03:59:51;;;;;;;12.18;5.00;;;;;;;5.32;49.19;152508.45;1716043;81;21195;-60
2020/12/10 04:02:23;;;;;;;8.00;4.28;;;;;;;5.38;49.08;152526.69;1740214;82;21170;-61
2020/12/10 04:04:55;;;;;;;12.20;5.40;;;;;;;5.48;48.95;152551.48;1751706;80;21445;-61
2020/12/10 04:07:28;;;;;;;8.90;4.60;;;;;;;5.25;49.00;152491.50;1761790;79;21422;-60
2020/12/10 04:10:00;;;;;;;11.25;4.25;;;;;;;5.19;49.23;152474.53;1762936;79;21205;-60
2020/12/10 04:12:34;;;;;;;14.18;5.20;;;;;;;5.21;49.14;152481.05;1779254;80;21328;-61
2020/12/10 04:15:07;;;;;;;12.35;5.45;;;;;;;5.25;49.17;152491.50;1775560;80;21336;-61
2020/12/10 04:17:40;;;;;;;14.75;5.60;;;;;;;5.28;49.10;152499.33;1776230;80;21642;-62
2020/12/10 04:20:12;;;;;;;13.50;5.58;;;;;;;5.29;49.04;152501.94;1760767;79;21213;-61
2020/12/10 04:22:44;;;;;;;16.05;6.75;;;;;;;5.23;49.17;152484.98;1716953;83;21340;-60
2020/12/10 04:25:17;;;;;;;14.13;5.85;;;;;;;5.26;49.18;152494.09;1739360;82;21280;-60
2020/12/10 04:27:49;;;;;;;12.60;5.35;;;;;;;5.25;49.07;152491.50;1716355;82;21359;-60
2020/12/10 04:30:22;;;;;;;12.85;5.00;;;;;;;5.27;49.03;152495.38;1753911;80;21701;-60
2020/12/10 04:32:55;;;;;;;11.50;5.67;;;;;;;5.22;49.10;152483.66;1750525;80;21269;-61
2020/12/10 04:35:27;;;;;;;11.63;6.05;;;;;;;5.26;49.15;152494.09;1744981;81;21855;-61
2020/12/10 04:38:00;;;;;;;10.88;5.05;;;;;;;5.32;49.14;152508.45;1711101;82;21277;-60
2020/12/10 04:40:32;;;;;;;10.35;5.50;;;;;;;5.33;49.12;152511.06;1733652;81;21682;-61
2020/12/10 04:43:07;;;;;;;12.30;5.87;;;;;;;5.26;49.26;152494.09;1702899;82;21365;-61
2020/12/10 04:45:39;;;;;;;13.13;5.42;;;;;;;5.32;49.21;152508.45;1734376;82;21449;-61
2020/12/10 04:48:12;;;;;;;14.45;5.22;;;;;;;5.30;49.23;152504.56;1718079;82;21222;-61
2020/12/10 04:50:44;;;;;;;14.75;5.25;;;;;;;5.35;49.15;152518.89;1733106;82;21210;-61
2020/12/10 04:53:16;;;;;;;14.25;6.92;;;;;;;5.27;49.33;152495.38;1704936;82;21345;-61
2020/12/10 04:55:49;;;;;;;10.48;5.05;;;;;;;5.24;49.40;152487.59;1726767;81;21701;-61
2020/12/10 04:58:23;;;;;;;11.20;5.72;;;;;;;5.31;49.44;152507.16;1737443;82;21356;-60
2020/12/10 05:01:00;;;;;;;14.38;5.45;;;;;;;5.30;49.55;152504.56;1723034;82;21231;-61
2020/12/10 05:03:32;;;;;;;15.28;5.47;;;;;;;5.33;49.56;152513.67;1738291;81;21250;-62
2020/12/10 05:06:12;;;;;;;12.85;5.40;;;;;;;5.46;49.22;152547.59;1727572;81;21230;-63
2020/12/10 05:08:45;;;;;;;12.15;5.17;;;;;;;5.45;49.46;152543.64;1725210;82;21223;-61
2020/12/10 05:11:35;;;;;;;18.37;6.20;;;;;;;5.51;49.43;152559.33;1732724;82;21430;-62
2020/12/10 05:14:08;;;;;;;17.10;6.90;;;;;;;5.55;49.39;152569.78;1704570;82;21257;-60
2020/12/10 05:16:40;;;;;;;15.08;6.20;;;;;;;5.55;49.46;152569.78;1735975;81;21202;-61
2020/12/10 05:19:21;;;;;;;18.40;7.15;;;;;;;5.48;49.53;152551.48;1730136;82;21329;-60
2020/12/10 05:22:05;;;;;;;16.95;6.80;;;;;;;5.60;49.63;152582.80;1716395;82;21238;-61
2020/12/10 05:24:38;;;;;;;14.40;6.10;;;;;;;5.64;49.69;152593.25;1735567;81;21325;-61
2020/12/10 05:27:24;;;;;;;15.60;6.70;;;;;;;5.65;49.69;152597.14;1750587;81;21233;-61
2020/12/10 05:29:57;;;;;;;14.53;6.45;;;;;;;5.69;49.67;152606.27;1743389;81;21273;-62
2020/12/10 05:32:44;;;;;;;14.18;6.75;;;;;;;5.70;49.77;152610.22;1711563;82;21192;-61
2020/12/10 05:35:26;;;;;;;13.05;5.60;;;;;;;5.73;49.73;152616.72;1709020;83;21266;-62
2020/12/10 05:37:58;;;;;;;10.93;6.05;;;;;;;5.74;49.70;152619.33;1734487;82;21465;-61
2020/12/10 05:40:31;;;;;;;11.38;5.75;;;;;;;5.79;49.71;152633.73;1690157;81;21324;-61
2020/12/10 05:43:03;;;;;;;10.78;5.20;;;;;;;5.79;49.67;152632.41;1727203;82;21206;-62
2020/12/10 05:45:39;;;;;;;14.05;6.15;;;;;;;5.80;49.74;152636.34;1711089;82;21854;-61
2020/12/10 05:48:13;;;;;;;14.23;5.45;;;;;;;5.90;49.75;152661.16;1730549;81;21349;-62
2020/12/10 05:50:45;;;;;;;11.20;5.12;;;;;;;5.90;49.87;152661.16;1744953;81;21325;-59
2020/12/10 05:53:17;;;;;;;10.93;5.50;;;;;;;5.97;49.83;152680.69;1738046;81;21325;-60
2020/12/10 05:55:52;;;;;;;35.13;11.38;;;;;;;6.01;49.77;152691.16;1732114;80;21296;-61
2020/12/10 05:58:25;;;;;;;17.23;6.80;;;;;;;6.04;49.87;152697.66;1741827;81;21266;-62
2020/12/10 06:00:57;;;;;;;23.02;9.13;;;;;;;6.09;49.82;152712.02;1744897;81;21826;-61
2020/12/10 06:03:30;;;;;;;16.25;6.53;;;;;;;6.09;49.75;152710.73;1718192;82;21228;-61
2020/12/10 06:06:07;;;;;;;12.78;5.90;;;;;;;6.09;49.76;152710.73;1705724;82;21394;-62
2020/12/10 06:08:45;;;;;;;11.55;6.10;;;;;;;6.10;49.85;152713.34;1717291;82;21757;-61
2020/12/10 06:11:19;;;;;;;14.13;6.47;;;;;;;6.16;49.78;152728.98;1711955;82;21210;-60
2020/12/10 06:13:52;;;;;;;12.20;5.55;;;;;;;6.12;49.79;152719.86;1706499;83;21721;-61
2020/12/10 06:16:24;;;;;;;17.00;6.80;;;;;;;6.20;49.71;152740.72;1716725;80;21791;-62
2020/12/10 06:19:03;;;;;;;12.45;6.65;;;;;;;6.17;49.99;152731.59;1692575;83;21354;-61
2020/12/10 06:21:44;;;;;;;16.82;7.62;;;;;;;6.44;49.64;152804.72;1705851;82;21241;-60
2020/12/10 06:24:35;;;;;;;16.77;7.28;;;;;;;6.22;49.86;152744.67;1692881;82;21222;-62
2020/12/10 06:27:13;;;;;;;20.88;7.33;;;;;;;6.16;50.02;152728.98;1721425;82;21574;-61
2020/12/10 06:29:48;;;;;;;25.43;9.68;;;;;;;6.22;50.10;152744.67;1679566;83;21220;-62
2020/12/10 06:32:21;;;;;;;22.32;8.80;;;;;;;6.24;50.05;152751.19;1708681;82;21445;-62
2020/12/10 06:34:57;;;;;;;23.73;9.15;;;;;;;6.28;49.99;152761.66;1730714;82;21394;-61
2020/12/10 06:37:31;;;;;;;23.32;8.60;;;;;;;6.31;49.96;152770.78;1692256;83;21213;-62
2020/12/10 06:40:05;;;;;;;21.70;8.65;;;;;;;6.45;49.96;152807.34;1745349;80;21320;-61
2020/12/10 06:42:46;;;;;;;17.92;7.95;;;;;;;6.57;49.90;152838.67;1741453;81;21400;-62
2020/12/10 06:45:35;;;;;;;15.28;6.78;;;;;;;6.63;49.75;152854.33;1713777;83;21882;-62
2020/12/10 06:48:12;;;;;;;17.27;7.83;;;;;;;6.66;49.69;152860.84;1706773;83;21395;-63
2020/12/10 06:50:44;;;;;;;12.93;6.53;;;;;;;6.72;49.59;152877.81;1711547;82;21211;-63
2020/12/10 06:53:21;;;;;;;17.65;6.85;;;;;;;6.68;49.42;152867.41;1711124;82;21399;-63
2020/12/10 06:56:02;;;;;;;16.42;7.08;;;;;;;6.69;49.50;152870.03;1709324;82;21577;-62
2020/12/10 06:58:44;;;;;;;13.68;6.67;;;;;;;6.71;49.46;152873.92;1707117;83;21412;-61
2020/12/10 07:01:26;;;;;;;15.58;6.50;;;;;;;6.62;49.59;152850.42;1702991;83;21415;-64
2020/12/10 07:07:21;;;;;;;15.23;6.90;;;;;;;6.67;49.36;152863.45;1682247;84;21204;-65
2020/12/10 07:10:01;;;;;;;14.73;7.03;;;;;;;6.61;49.42;152847.81;1718254;81;21479;-61
2020/12/10 07:12:42;;;;;;;14.58;6.58;;;;;;;6.59;49.58;152843.91;1729738;81;21436;-64
2020/12/10 07:15:26;;;;;;;14.65;6.97;;;;;;;6.70;49.42;152872.64;1729992;81;21345;-64
2020/12/10 07:17:58;;;;;;;17.25;6.55;;;;;;;6.78;49.43;152892.19;1699987;83;21250;-64
2020/12/10 07:20:32;;;;;;;17.50;7.12;;;;;;;6.81;49.27;152900.03;1721693;81;21430;-64
2020/12/10 07:23:07;;;;;;;18.02;7.58;;;;;;;6.82;49.32;152902.66;1780363;80;21310;-65
2020/12/10 07:25:40;;;;;;;16.65;7.12;;;;;;;6.78;49.27;152893.52;1774068;80;21277;-63
2020/12/10 07:28:12;;;;;;;12.80;6.67;;;;;;;6.81;49.32;152901.36;1760144;80;21171;-62
2020/12/10 07:30:44;;;;;;;19.52;7.85;;;;;;;6.76;49.42;152887.00;1772147;80;21347;-62
2020/12/10 07:33:22;;;;;;;56.90;14.93;;;;;;;6.79;49.41;152894.80;1767912;80;21403;-62
2020/12/10 07:35:55;;;;;;;47.23;16.15;;;;;;;6.69;49.53;152868.69;1771267;80;21241;-63
2020/12/10 07:38:28;;;;;;;32.25;10.05;;;;;;;6.71;49.50;152875.20;1771524;80;22244;-64
2020/12/10 07:41:02;;;;;;;19.30;8.20;;;;;;;6.82;49.39;152903.98;1763545;80;21476;-64
2020/12/10 07:43:35;;;;;;;20.80;8.23;;;;;;;6.84;49.46;152909.16;1773061;80;21320;-64
2020/12/10 07:46:08;;;;;;;18.73;8.03;;;;;;;6.80;49.55;152898.75;1746261;80;21851;-66
2020/12/10 07:48:41;;;;;;;15.70;7.42;;;;;;;6.82;49.56;152903.98;1772247;80;21315;-65
2020/12/10 07:51:21;;;;;;;17.77;8.30;;;;;;;6.73;49.78;152880.44;1761405;80;21260;-65
2020/12/10 07:53:57;;;;;;;16.50;6.35;;;;;;;6.80;49.68;152898.75;1768693;79;21345;-65
2020/12/10 07:56:31;;;;;;;17.40;7.35;;;;;;;6.78;49.83;152893.52;1750086;80;21368;-63
2020/12/10 07:59:15;;;;;;;20.45;8.70;;;;;;;6.81;49.80;152901.36;1763926;80;21371;-65
2020/12/10 08:01:51;;;;;;;29.02;10.15;;;;;;;6.88;49.91;152919.62;1764283;79;21368;-66
2020/12/10 08:04:24;;;;;;;20.48;8.45;;;;;;;6.90;49.83;152924.86;1773809;80;21590;-66
2020/12/10 08:06:57;;;;;;;15.50;7.08;;;;;;;6.98;49.76;152944.47;1769685;79;21336;-74
2020/12/10 08:09:31;;;;;;;22.35;8.75;;;;;;;7.27;49.58;153021.55;1766953;79;21280;-67
2020/12/10 08:12:05;;;;;;;23.50;9.78;;;;;;;7.09;49.40;152974.48;1728335;80;21232;-67
2020/12/10 08:14:41;;;;;;;20.55;10.28;;;;;;;7.18;49.43;152998.00;1749551;79;21883;-68
2020/12/10 08:17:22;;;;;;;19.45;9.25;;;;;;;7.17;49.56;152995.42;1749074;80;21438;-66
2020/12/10 08:20:00;;;;;;;21.75;8.93;;;;;;;7.40;49.48;153055.53;1744513;80;21434;-68
2020/12/10 08:22:35;;;;;;;19.62;8.35;;;;;;;7.44;49.00;153065.95;1752029;79;21453;-69
2020/12/10 08:25:16;;;;;;;15.53;7.90;;;;;;;7.23;49.18;153011.08;1752774;79;21380;-69
2020/12/10 08:27:53;;;;;;;14.40;7.60;;;;;;;7.17;49.35;152995.42;1752731;80;21398;-65
2020/12/10 08:30:30;;;;;;;14.87;7.15;;;;;;;7.16;49.38;152994.09;1751834;80;22529;-67
2020/12/10 08:33:08;;;;;;;21.35;9.13;;;;;;;7.15;49.65;152990.19;1753810;80;21718;-68
2020/12/10 08:35:44;;;;;;;15.10;6.62;;;;;;;7.28;49.53;153024.17;1763193;79;21194;-64
2020/12/10 08:38:23;;;;;;;18.37;7.60;;;;;;;7.24;49.57;153014.98;1768545;80;21493;-64
2020/12/10 08:41:00;;;;;;;20.57;8.68;;;;;;;7.29;49.63;153028.06;1760916;80;22267;-64
2020/12/10 08:43:35;;;;;;;15.32;7.55;;;;;;;7.28;49.76;153024.17;1774524;80;21379;-65
2020/12/10 08:46:21;;;;;;;13.93;6.67;;;;;;;7.17;49.86;152996.70;1764648;80;21431;-67
2020/12/10 08:49:29;;;;;;;17.57;7.42;;;;;;;7.04;50.25;152960.12;1707649;81;21309;-64
2020/12/10 08:52:35;;;;;;;19.25;8.60;;;;;;;7.19;50.21;153000.61;1710144;81;22100;-70
2020/12/10 08:55:25;;;;;;;18.20;7.87;;;;;;;7.38;50.09;153051.58;1737469;81;21789;-68
2020/12/10 08:57:58;;;;;;;17.60;8.53;;;;;;;7.40;50.28;153055.53;1752271;81;21253;-64
2020/12/10 09:00:31;;;;;;;17.90;7.22;;;;;;;7.38;50.38;153051.58;1737228;81;21175;-67
2020/12/10 09:03:04;;;;;;;20.97;8.48;;;;;;;7.45;50.26;153068.56;1737708;81;21263;-66
2020/12/10 09:05:37;;;;;;;21.05;8.93;;;;;;;7.50;50.37;153082.94;1713233;83;21269;-65
2020/12/10 09:08:09;;;;;;;18.20;9.18;;;;;;;7.66;50.29;153123.45;1763566;80;21233;-66
2020/12/10 09:10:42;;;;;;;22.45;9.53;;;;;;;7.68;50.37;153130.03;1757294;80;21250;-63
2020/12/10 09:13:14;;;;;;;20.95;8.45;;;;;;;7.94;50.25;153196.69;1755610;80;21282;-64
2020/12/10 09:15:47;;;;;;;30.57;11.05;;;;;;;7.74;50.62;153144.41;1771119;79;21241;-63
2020/12/10 09:18:20;;;;;;;18.65;8.63;;;;;;;7.76;50.64;153150.94;1743818;80;21401;-63
2020/12/10 09:20:53;;;;;;;21.55;10.32;;;;;;;7.74;50.78;153145.69;1762654;80;21251;-65
2020/12/10 09:23:25;;;;;;;28.47;11.22;;;;;;;7.77;50.80;153153.55;1759090;79;21214;-64
2020/12/10 09:25:58;;;;;;;22.52;11.25;;;;;;;7.83;51.12;153167.92;1746508;81;21325;-65
2020/12/10 09:28:33;;;;;;;30.60;12.15;;;;;;;7.86;51.10;153177.06;1749474;81;21500;-64
2020/12/10 09:31:05;;;;;;;31.37;11.68;;;;;;;7.99;51.02;153211.06;1753838;81;21256;-64
2020/12/10 09:33:38;;;;;;;24.90;10.90;;;;;;;8.02;51.01;153218.92;1747545;81;21220;-62
2020/12/10 09:36:10;;;;;;;19.02;9.70;;;;;;;8.16;50.97;153255.55;1746319;81;21264;-63
2020/12/10 09:38:44;;;;;;;21.95;9.85;;;;;;;8.15;50.90;153254.27;1753651;81;21258;-63
2020/12/10 09:41:17;;;;;;;23.62;8.90;;;;;;;8.21;50.99;153268.66;1747670;81;21253;-63
2020/12/10 09:43:49;;;;;;;25.95;9.38;;;;;;;8.29;50.84;153290.91;1746046;81;21209;-63
2020/12/10 09:46:22;;;;;;;27.07;11.50;;;;;;;8.24;50.80;153277.80;1705716;84;22062;-64
2020/12/10 09:48:55;;;;;;;25.02;9.75;;;;;;;8.24;51.06;153277.80;1746767;81;21257;-62
2020/12/10 09:51:34;;;;;;;22.45;9.58;;;;;;;8.15;51.25;153252.92;1749056;81;22042;-63
2020/12/10 09:54:55;;;;;;;22.70;9.13;;;;;;;8.20;51.14;153267.37;1735345;81;21426;-63
2020/12/10 09:59:36;;;;;;;21.73;9.23;;;;;;;8.14;51.24;153251.59;1737097;82;22259;-64
2020/12/10 10:02:08;;;;;;;19.82;8.28;;;;;;;8.25;51.11;153279.12;1751092;81;21552;-64
2020/12/10 10:04:41;;;;;;;23.70;9.58;;;;;;;8.22;51.17;153271.27;1707127;82;21218;-62
2020/12/10 10:07:14;;;;;;;24.85;9.28;;;;;;;8.18;51.31;153262.12;1775755;80;21548;-64
2020/12/10 10:09:47;;;;;;;16.80;7.95;;;;;;;8.05;51.54;153226.73;1762945;80;21517;-62
2020/12/10 10:12:19;;;;;;;18.35;8.48;;;;;;;8.23;51.35;153275.17;1730828;80;21473;-65
2020/12/10 10:14:52;;;;;;;21.00;7.72;;;;;;;8.37;51.33;153311.81;1764483;80;21469;-64
2020/12/10 10:17:24;;;;;;;24.90;8.78;;;;;;;8.23;51.43;153275.17;1761067;80;21234;-65
2020/12/10 10:19:57;;;;;;;24.98;9.83;;;;;;;8.42;51.36;153324.91;1764638;80;21233;-66
2020/12/10 10:22:31;;;;;;;22.90;9.75;;;;;;;8.64;50.95;153381.12;1772624;79;21252;-64
2020/12/10 10:25:07;;;;;;;21.42;9.28;;;;;;;8.58;50.93;153366.75;1779902;79;21288;-64
2020/12/10 10:27:39;;;;;;;24.25;9.63;;;;;;;8.53;50.91;153353.69;1770669;79;21511;-65
2020/12/10 10:30:11;;;;;;;20.97;10.85;;;;;;;8.43;51.12;153326.19;1772300;80;21300;-65
2020/12/10 10:32:44;;;;;;;23.52;9.50;;;;;;;8.34;51.33;153302.66;1763922;79;21210;-66
2020/12/10 10:35:17;;;;;;;22.13;9.88;;;;;;;8.00;51.93;153213.69;1779273;79;21257;-63
2020/12/10 10:37:49;;;;;;;23.77;10.05;;;;;;;8.10;52.17;153241.13;1780698;80;21304;-63
2020/12/10 10:40:22;;;;;;;22.30;10.23;;;;;;;7.99;52.31;153209.73;1769824;79;21492;-65
2020/12/10 10:42:55;;;;;;;27.85;9.60;;;;;;;8.31;52.05;153296.14;1773528;79;21340;-62
2020/12/10 10:45:29;;;;;;;23.57;10.45;;;;;;;8.37;51.76;153311.81;1742299;81;21232;-62
2020/12/10 10:48:03;;;;;;;26.02;11.18;;;;;;;8.11;52.23;153243.73;1746210;81;21216;-62
2020/12/10 10:50:35;;;;;;;25.43;10.32;;;;;;;8.01;52.74;153216.31;1749161;81;21310;-63
2020/12/10 10:53:08;;;;;;;34.45;13.20;;;;;;;7.97;52.81;153204.55;1753530;81;22041;-64
2020/12/10 10:55:41;;;;;;;29.57;12.35;;;;;;;8.02;52.96;153217.59;1745039;81;21313;-65
2020/12/10 10:58:13;;;;;;;27.35;11.68;;;;;;;8.01;53.13;153214.97;1748197;81;21313;-64
2020/12/10 11:00:49;;;;;;;32.65;12.98;;;;;;;8.09;53.26;153238.55;1751341;81;21288;-65
2020/12/10 11:03:22;;;;;;;27.13;11.55;;;;;;;7.99;53.25;153211.06;1750045;81;21291;-63
2020/12/10 11:06:00;;;;;;;30.23;12.30;;;;;;;8.29;53.14;153290.91;1748502;81;22065;-63
2020/12/10 11:08:41;;;;;;;29.07;11.65;;;;;;;8.25;53.07;153280.42;1752537;81;21493;-64
2020/12/10 11:11:24;;;;;;;30.60;11.40;;;;;;;7.88;53.73;153182.30;1743874;81;21225;-63
2020/12/10 11:13:57;;;;;;;38.45;13.65;;;;;;;8.17;53.51;153259.50;1747333;81;21266;-64
2020/12/10 11:16:29;;;;;;;30.77;13.40;;;;;;;8.21;53.43;153269.98;1752189;81;21278;-65
2020/12/10 11:19:03;;;;;;;31.52;13.62;;;;;;;7.98;53.86;153208.44;1751348;81;21230;-64
2020/12/10 11:21:35;;;;;;;26.80;11.40;;;;;;;8.05;53.72;153226.73;1750773;81;21528;-62
2020/12/10 11:24:07;;;;;;;29.27;13.35;;;;;;;8.03;53.98;153221.55;1750017;81;21244;-62
2020/12/10 11:26:40;;;;;;;35.83;12.50;;;;;;;8.10;53.87;153241.13;1745978;81;21291;-61
2020/12/10 11:29:12;;;;;;;22.85;10.50;;;;;;;8.18;54.26;153262.12;1751389;81;21257;-61
2020/12/10 11:31:45;;;;;;;29.05;11.85;;;;;;;8.26;54.77;153283.03;1755205;81;21219;-60
2020/12/10 11:34:18;;;;;;;33.13;11.88;;;;;;;8.48;54.30;153339.30;1750511;81;21262;-63
2020/12/10 11:36:50;;;;;;;42.00;16.77;;;;;;;8.09;54.86;153238.55;1746003;81;21427;-63
2020/12/10 11:39:22;;;;;;;32.28;12.63;;;;;;;8.03;55.59;153220.20;1750506;81;21282;-61
2020/12/10 11:41:55;;;;;;;30.52;10.60;;;;;;;7.96;55.30;153201.92;1750129;81;21237;-63
2020/12/10 11:44:28;;;;;;;27.32;11.35;;;;;;;7.94;56.17;153196.69;1749920;81;21233;-62
2020/12/10 11:47:00;;;;;;;32.05;14.38;;;;;;;8.17;55.96;153259.50;1746823;81;21559;-62
2020/12/10 11:49:33;;;;;;;25.68;10.98;;;;;;;8.22;55.63;153272.56;1747621;81;21262;-63
2020/12/10 11:52:06;;;;;;;32.05;12.70;;;;;;;8.26;55.48;153283.03;1753119;81;21472;-63
2020/12/10 11:54:38;;;;;;;27.70;11.95;;;;;;;7.98;56.30;153207.16;1718126;80;21284;-63
2020/12/10 11:57:10;;;;;;;28.23;12.75;;;;;;;8.03;56.19;153222.83;1747757;81;21293;-64
2020/12/10 11:59:42;;;;;;;26.00;11.05;;;;;;;7.97;56.65;153204.55;1754750;81;21242;-63
2020/12/10 12:02:16;;;;;;;27.17;11.50;;;;;;;7.95;56.34;153199.31;1750749;81;21238;-63